sensor_id;sensor_type;location;lat;lon;timestamp;P1;durP1;ratioP1;P2;durP2;ratioP2
27889;SDS011;15238;49.082;9.102;2023-07-08T00:00:59;9.00;;;5.60;;
27889;SDS011;15238;49.082;9.102;2023-07-08T00:03:00;9.35;;;5.50;;
27889;SDS011;15238;49.082;9.102;2023-07-08T00:05:01;7.28;;;5.63;;
27889;SDS011;15238;49.082;9.102;2023-07-08T00:07:01;16.90;;;6.15;;
27889;SDS011;15238;49.082;9.102;2023-07-08T00:09:02;8.32;;;5.63;;
27889;SDS011;15238;49.082;9.102;2023-07-08T00:11:10;8.73;;;5.53;;
27889;SDS011;15238;49.082;9.102;2023-07-08T00:13:12;10.95;;;5.57;;
27889;SDS011;15238;49.082;9.102;2023-07-08T00:15:12;7.57;;;5.22;;
27889;SDS011;15238;49.082;9.102;2023-07-08T00:17:13;12.07;;;5.90;;
27889;SDS011;15238;49.082;9.102;2023-07-08T00:19:14;8.77;;;5.85;;
27889;SDS011;15238;49.082;9.102;2023-07-08T00:21:19;10.15;;;6.35;;
27889;SDS011;15238;49.082;9.102;2023-07-08T00:23:19;13.63;;;6.68;;
27889;SDS011;15238;49.082;9.102;2023-07-08T00:25:21;9.23;;;6.35;;
27889;SDS011;15238;49.082;9.102;2023-07-08T00:27:22;10.40;;;6.43;;
27889;SDS011;15238;49.082;9.102;2023-07-08T00:29:23;14.27;;;6.30;;
27889;SDS011;15238;49.082;9.102;2023-07-08T00:31:23;12.68;;;6.40;;
27889;SDS011;15238;49.082;9.102;2023-07-08T00:33:25;8.77;;;5.78;;
27889;SDS011;15238;49.082;9.102;2023-07-08T00:35:28;13.50;;;6.30;;
27889;SDS011;15238;49.082;9.102;2023-07-08T00:37:37;11.45;;;6.40;;
27889;SDS011;15238;49.082;9.102;2023-07-08T00:39:38;10.35;;;7.00;;
27889;SDS011;15238;49.082;9.102;2023-07-08T00:41:39;9.00;;;5.97;;
27889;SDS011;15238;49.082;9.102;2023-07-08T00:43:46;10.25;;;6.55;;
27889;SDS011;15238;49.082;9.102;2023-07-08T00:45:51;11.63;;;6.22;;
27889;SDS011;15238;49.082;9.102;2023-07-08T00:47:56;12.15;;;6.28;;
27889;SDS011;15238;49.082;9.102;2023-07-08T00:50:08;9.98;;;6.63;;
27889;SDS011;15238;49.082;9.102;2023-07-08T00:52:18;9.43;;;6.40;;
27889;SDS011;15238;49.082;9.102;2023-07-08T00:54:19;12.85;;;6.60;;
27889;SDS011;15238;49.082;9.102;2023-07-08T00:56:23;13.82;;;6.53;;
27889;SDS011;15238;49.082;9.102;2023-07-08T00:58:37;12.13;;;6.78;;
27889;SDS011;15238;49.082;9.102;2023-07-08T01:00:43;10.93;;;6.38;;
27889;SDS011;15238;49.082;9.102;2023-07-08T01:02:46;11.25;;;6.07;;
27889;SDS011;15238;49.082;9.102;2023-07-08T01:04:55;9.73;;;6.07;;
27889;SDS011;15238;49.082;9.102;2023-07-08T01:07:10;12.95;;;6.82;;
27889;SDS011;15238;49.082;9.102;2023-07-08T01:09:11;11.60;;;6.90;;
27889;SDS011;15238;49.082;9.102;2023-07-08T01:11:15;10.02;;;6.28;;
27889;SDS011;15238;49.082;9.102;2023-07-08T01:13:15;12.10;;;6.60;;
27889;SDS011;15238;49.082;9.102;2023-07-08T01:15:17;10.38;;;6.38;;
27889;SDS011;15238;49.082;9.102;2023-07-08T01:17:17;10.95;;;6.30;;
27889;SDS011;15238;49.082;9.102;2023-07-08T01:19:19;8.73;;;5.85;;
27889;SDS011;15238;49.082;9.102;2023-07-08T01:21:33;9.13;;;6.60;;
27889;SDS011;15238;49.082;9.102;2023-07-08T01:23:38;11.57;;;6.85;;
27889;SDS011;15238;49.082;9.102;2023-07-08T01:25:39;9.13;;;6.35;;
27889;SDS011;15238;49.082;9.102;2023-07-08T01:27:43;9.88;;;6.30;;
27889;SDS011;15238;49.082;9.102;2023-07-08T01:29:47;9.52;;;6.43;;
27889;SDS011;15238;49.082;9.102;2023-07-08T01:31:47;11.10;;;6.47;;
27889;SDS011;15238;49.082;9.102;2023-07-08T01:33:49;16.13;;;7.10;;
27889;SDS011;15238;49.082;9.102;2023-07-08T01:35:51;14.07;;;6.95;;
27889;SDS011;15238;49.082;9.102;2023-07-08T01:37:53;10.43;;;7.03;;
27889;SDS011;15238;49.082;9.102;2023-07-08T01:39:57;13.63;;;6.78;;
27889;SDS011;15238;49.082;9.102;2023-07-08T01:41:58;11.65;;;6.55;;
27889;SDS011;15238;49.082;9.102;2023-07-08T01:43:59;11.73;;;6.85;;
27889;SDS011;15238;49.082;9.102;2023-07-08T01:46:00;11.40;;;6.30;;
27889;SDS011;15238;49.082;9.102;2023-07-08T01:48:14;11.15;;;6.18;;
27889;SDS011;15238;49.082;9.102;2023-07-08T01:50:18;9.60;;;5.95;;
27889;SDS011;15238;49.082;9.102;2023-07-08T01:52:19;9.60;;;6.30;;
27889;SDS011;15238;49.082;9.102;2023-07-08T01:54:20;10.40;;;6.35;;
27889;SDS011;15238;49.082;9.102;2023-07-08T01:56:21;11.10;;;6.82;;
27889;SDS011;15238;49.082;9.102;2023-07-08T01:58:21;15.73;;;6.95;;
27889;SDS011;15238;49.082;9.102;2023-07-08T02:00:22;9.70;;;6.25;;
27889;SDS011;15238;49.082;9.102;2023-07-08T02:02:22;13.38;;;6.53;;
27889;SDS011;15238;49.082;9.102;2023-07-08T02:04:25;12.00;;;6.85;;
27889;SDS011;15238;49.082;9.102;2023-07-08T02:06:26;11.27;;;6.47;;
27889;SDS011;15238;49.082;9.102;2023-07-08T02:08:27;14.20;;;6.88;;
27889;SDS011;15238;49.082;9.102;2023-07-08T02:10:28;12.77;;;6.60;;
27889;SDS011;15238;49.082;9.102;2023-07-08T02:12:28;12.93;;;6.85;;
27889;SDS011;15238;49.082;9.102;2023-07-08T02:14:29;11.10;;;7.20;;
27889;SDS011;15238;49.082;9.102;2023-07-08T02:16:29;9.93;;;6.55;;
27889;SDS011;15238;49.082;9.102;2023-07-08T02:18:30;10.93;;;6.75;;
27889;SDS011;15238;49.082;9.102;2023-07-08T02:20:32;10.10;;;6.10;;
27889;SDS011;15238;49.082;9.102;2023-07-08T02:22:32;10.55;;;6.18;;
27889;SDS011;15238;49.082;9.102;2023-07-08T02:24:33;10.38;;;6.38;;
27889;SDS011;15238;49.082;9.102;2023-07-08T02:26:33;11.18;;;6.32;;
27889;SDS011;15238;49.082;9.102;2023-07-08T02:28:34;11.13;;;6.95;;
27889;SDS011;15238;49.082;9.102;2023-07-08T02:30:34;11.30;;;5.97;;
27889;SDS011;15238;49.082;9.102;2023-07-08T02:32:36;9.65;;;6.50;;
27889;SDS011;15238;49.082;9.102;2023-07-08T02:34:38;8.93;;;6.60;;
27889;SDS011;15238;49.082;9.102;2023-07-08T02:36:39;11.35;;;6.57;;
27889;SDS011;15238;49.082;9.102;2023-07-08T02:38:39;9.05;;;5.90;;
27889;SDS011;15238;49.082;9.102;2023-07-08T02:40:40;11.90;;;6.00;;
27889;SDS011;15238;49.082;9.102;2023-07-08T02:42:40;10.52;;;6.38;;
27889;SDS011;15238;49.082;9.102;2023-07-08T02:44:41;15.20;;;6.90;;
27889;SDS011;15238;49.082;9.102;2023-07-08T02:46:41;10.20;;;6.68;;
27889;SDS011;15238;49.082;9.102;2023-07-08T02:48:42;9.60;;;5.80;;
27889;SDS011;15238;49.082;9.102;2023-07-08T02:50:42;11.00;;;6.45;;
27889;SDS011;15238;49.082;9.102;2023-07-08T02:52:43;10.77;;;6.18;;
27889;SDS011;15238;49.082;9.102;2023-07-08T02:54:43;12.35;;;6.60;;
27889;SDS011;15238;49.082;9.102;2023-07-08T02:56:44;8.88;;;5.50;;
27889;SDS011;15238;49.082;9.102;2023-07-08T02:58:45;9.07;;;5.82;;
27889;SDS011;15238;49.082;9.102;2023-07-08T03:00:45;10.65;;;6.15;;
27889;SDS011;15238;49.082;9.102;2023-07-08T03:02:50;12.20;;;6.50;;
27889;SDS011;15238;49.082;9.102;2023-07-08T03:04:51;11.45;;;6.50;;
27889;SDS011;15238;49.082;9.102;2023-07-08T03:06:54;10.50;;;6.30;;
27889;SDS011;15238;49.082;9.102;2023-07-08T03:08:54;10.88;;;6.60;;
27889;SDS011;15238;49.082;9.102;2023-07-08T03:10:56;11.23;;;6.05;;
27889;SDS011;15238;49.082;9.102;2023-07-08T03:13:02;13.35;;;6.65;;
27889;SDS011;15238;49.082;9.102;2023-07-08T03:15:02;12.10;;;6.75;;
27889;SDS011;15238;49.082;9.102;2023-07-08T03:17:04;12.48;;;6.72;;
27889;SDS011;15238;49.082;9.102;2023-07-08T03:19:05;9.80;;;6.35;;
27889;SDS011;15238;49.082;9.102;2023-07-08T03:21:07;11.60;;;6.63;;
27889;SDS011;15238;49.082;9.102;2023-07-08T03:23:07;10.30;;;6.82;;
27889;SDS011;15238;49.082;9.102;2023-07-08T03:25:08;10.60;;;6.45;;
27889;SDS011;15238;49.082;9.102;2023-07-08T03:27:09;9.68;;;6.63;;
27889;SDS011;15238;49.082;9.102;2023-07-08T03:29:13;10.68;;;6.18;;
27889;SDS011;15238;49.082;9.102;2023-07-08T03:31:15;11.07;;;6.60;;
27889;SDS011;15238;49.082;9.102;2023-07-08T03:33:16;11.32;;;6.50;;
27889;SDS011;15238;49.082;9.102;2023-07-08T03:35:16;10.85;;;6.88;;
27889;SDS011;15238;49.082;9.102;2023-07-08T03:37:17;10.27;;;6.55;;
27889;SDS011;15238;49.082;9.102;2023-07-08T03:39:18;10.35;;;6.38;;
27889;SDS011;15238;49.082;9.102;2023-07-08T03:41:21;10.55;;;5.95;;
27889;SDS011;15238;49.082;9.102;2023-07-08T03:43:22;11.85;;;5.68;;
27889;SDS011;15238;49.082;9.102;2023-07-08T03:45:22;9.73;;;6.53;;
27889;SDS011;15238;49.082;9.102;2023-07-08T03:47:23;9.25;;;7.10;;
27889;SDS011;15238;49.082;9.102;2023-07-08T03:49:23;10.45;;;6.75;;
27889;SDS011;15238;49.082;9.102;2023-07-08T03:51:26;10.30;;;6.72;;
27889;SDS011;15238;49.082;9.102;2023-07-08T03:53:32;10.90;;;6.35;;
27889;SDS011;15238;49.082;9.102;2023-07-08T03:55:32;11.60;;;6.82;;
27889;SDS011;15238;49.082;9.102;2023-07-08T03:57:33;9.95;;;6.15;;
27889;SDS011;15238;49.082;9.102;2023-07-08T03:59:33;11.10;;;6.70;;
27889;SDS011;15238;49.082;9.102;2023-07-08T04:01:34;9.82;;;6.05;;
27889;SDS011;15238;49.082;9.102;2023-07-08T04:03:35;10.38;;;5.95;;
27889;SDS011;15238;49.082;9.102;2023-07-08T04:05:36;8.90;;;5.93;;
27889;SDS011;15238;49.082;9.102;2023-07-08T04:07:36;8.85;;;6.05;;
27889;SDS011;15238;49.082;9.102;2023-07-08T04:09:37;9.43;;;5.88;;
27889;SDS011;15238;49.082;9.102;2023-07-08T04:11:37;8.75;;;6.28;;
27889;SDS011;15238;49.082;9.102;2023-07-08T04:13:38;12.82;;;6.13;;
27889;SDS011;15238;49.082;9.102;2023-07-08T04:15:39;13.05;;;5.80;;
27889;SDS011;15238;49.082;9.102;2023-07-08T04:17:46;11.15;;;6.30;;
27889;SDS011;15238;49.082;9.102;2023-07-08T04:19:49;8.70;;;6.03;;
27889;SDS011;15238;49.082;9.102;2023-07-08T04:21:50;9.57;;;6.50;;
27889;SDS011;15238;49.082;9.102;2023-07-08T04:23:50;9.80;;;6.53;;
27889;SDS011;15238;49.082;9.102;2023-07-08T04:25:52;10.35;;;7.22;;
27889;SDS011;15238;49.082;9.102;2023-07-08T04:27:55;12.77;;;7.20;;
27889;SDS011;15238;49.082;9.102;2023-07-08T04:29:55;9.55;;;5.97;;
27889;SDS011;15238;49.082;9.102;2023-07-08T04:31:56;13.20;;;6.75;;
27889;SDS011;15238;49.082;9.102;2023-07-08T04:33:56;13.32;;;7.13;;
27889;SDS011;15238;49.082;9.102;2023-07-08T04:35:57;14.00;;;6.72;;
27889;SDS011;15238;49.082;9.102;2023-07-08T04:37:57;10.25;;;6.45;;
27889;SDS011;15238;49.082;9.102;2023-07-08T04:39:58;10.40;;;6.53;;
27889;SDS011;15238;49.082;9.102;2023-07-08T04:42:00;9.57;;;5.97;;
27889;SDS011;15238;49.082;9.102;2023-07-08T04:44:00;11.88;;;6.72;;
27889;SDS011;15238;49.082;9.102;2023-07-08T04:46:02;11.75;;;6.20;;
27889;SDS011;15238;49.082;9.102;2023-07-08T04:48:04;13.02;;;6.43;;
27889;SDS011;15238;49.082;9.102;2023-07-08T04:50:12;8.13;;;6.45;;
27889;SDS011;15238;49.082;9.102;2023-07-08T04:52:13;10.57;;;7.00;;
27889;SDS011;15238;49.082;9.102;2023-07-08T04:54:13;11.38;;;6.18;;
27889;SDS011;15238;49.082;9.102;2023-07-08T04:56:14;10.05;;;6.40;;
27889;SDS011;15238;49.082;9.102;2023-07-08T04:58:15;15.82;;;7.15;;
27889;SDS011;15238;49.082;9.102;2023-07-08T05:00:16;14.32;;;6.47;;
27889;SDS011;15238;49.082;9.102;2023-07-08T05:02:17;9.95;;;6.32;;
27889;SDS011;15238;49.082;9.102;2023-07-08T05:04:20;10.63;;;6.45;;
27889;SDS011;15238;49.082;9.102;2023-07-08T05:06:22;11.38;;;6.40;;
27889;SDS011;15238;49.082;9.102;2023-07-08T05:08:22;8.45;;;5.75;;
27889;SDS011;15238;49.082;9.102;2023-07-08T05:10:23;9.45;;;6.30;;
27889;SDS011;15238;49.082;9.102;2023-07-08T05:12:25;10.07;;;6.35;;
27889;SDS011;15238;49.082;9.102;2023-07-08T05:14:26;9.35;;;6.15;;
27889;SDS011;15238;49.082;9.102;2023-07-08T05:16:26;12.98;;;6.20;;
27889;SDS011;15238;49.082;9.102;2023-07-08T05:18:27;12.85;;;6.78;;
27889;SDS011;15238;49.082;9.102;2023-07-08T05:20:28;9.38;;;6.40;;
27889;SDS011;15238;49.082;9.102;2023-07-08T05:22:31;12.45;;;6.50;;
27889;SDS011;15238;49.082;9.102;2023-07-08T05:24:31;9.10;;;6.57;;
27889;SDS011;15238;49.082;9.102;2023-07-08T05:26:32;10.68;;;6.18;;
27889;SDS011;15238;49.082;9.102;2023-07-08T05:28:33;13.93;;;6.80;;
27889;SDS011;15238;49.082;9.102;2023-07-08T05:30:34;10.43;;;6.13;;
27889;SDS011;15238;49.082;9.102;2023-07-08T05:32:34;8.85;;;5.93;;
27889;SDS011;15238;49.082;9.102;2023-07-08T05:34:35;10.43;;;6.00;;
27889;SDS011;15238;49.082;9.102;2023-07-08T05:36:35;10.48;;;6.00;;
27889;SDS011;15238;49.082;9.102;2023-07-08T05:38:36;10.55;;;5.90;;
27889;SDS011;15238;49.082;9.102;2023-07-08T05:40:36;11.45;;;6.00;;
27889;SDS011;15238;49.082;9.102;2023-07-08T05:42:37;9.40;;;6.25;;
27889;SDS011;15238;49.082;9.102;2023-07-08T05:44:37;10.38;;;6.55;;
27889;SDS011;15238;49.082;9.102;2023-07-08T05:46:38;9.50;;;5.82;;
27889;SDS011;15238;49.082;9.102;2023-07-08T05:48:39;12.90;;;7.00;;
27889;SDS011;15238;49.082;9.102;2023-07-08T05:50:39;11.00;;;5.93;;
27889;SDS011;15238;49.082;9.102;2023-07-08T05:52:40;10.70;;;6.43;;
27889;SDS011;15238;49.082;9.102;2023-07-08T05:54:41;11.52;;;6.85;;
27889;SDS011;15238;49.082;9.102;2023-07-08T05:56:42;10.43;;;6.40;;
27889;SDS011;15238;49.082;9.102;2023-07-08T05:58:42;11.82;;;6.30;;
27889;SDS011;15238;49.082;9.102;2023-07-08T06:00:43;11.27;;;6.57;;
27889;SDS011;15238;49.082;9.102;2023-07-08T06:02:44;9.45;;;6.07;;
27889;SDS011;15238;49.082;9.102;2023-07-08T06:04:44;9.75;;;6.45;;
27889;SDS011;15238;49.082;9.102;2023-07-08T06:06:45;13.75;;;7.32;;
27889;SDS011;15238;49.082;9.102;2023-07-08T06:08:45;10.73;;;6.47;;
27889;SDS011;15238;49.082;9.102;2023-07-08T06:10:46;14.77;;;6.50;;
27889;SDS011;15238;49.082;9.102;2023-07-08T06:12:51;7.32;;;4.95;;
27889;SDS011;15238;49.082;9.102;2023-07-08T06:14:55;11.10;;;5.68;;
27889;SDS011;15238;49.082;9.102;2023-07-08T06:16:57;9.35;;;5.78;;
27889;SDS011;15238;49.082;9.102;2023-07-08T06:18:58;9.23;;;6.10;;
27889;SDS011;15238;49.082;9.102;2023-07-08T06:20:59;9.10;;;5.88;;
27889;SDS011;15238;49.082;9.102;2023-07-08T06:23:00;8.48;;;5.25;;
27889;SDS011;15238;49.082;9.102;2023-07-08T06:25:01;9.00;;;5.45;;
27889;SDS011;15238;49.082;9.102;2023-07-08T06:27:02;9.13;;;5.55;;
27889;SDS011;15238;49.082;9.102;2023-07-08T06:29:03;12.45;;;5.57;;
27889;SDS011;15238;49.082;9.102;2023-07-08T06:31:04;13.98;;;5.57;;
27889;SDS011;15238;49.082;9.102;2023-07-08T06:33:04;8.10;;;5.15;;
27889;SDS011;15238;49.082;9.102;2023-07-08T06:35:05;9.30;;;5.43;;
27889;SDS011;15238;49.082;9.102;2023-07-08T06:37:06;8.07;;;5.60;;
27889;SDS011;15238;49.082;9.102;2023-07-08T06:39:06;8.90;;;5.53;;
27889;SDS011;15238;49.082;9.102;2023-07-08T06:41:08;14.52;;;5.20;;
27889;SDS011;15238;49.082;9.102;2023-07-08T06:43:09;11.15;;;5.80;;
27889;SDS011;15238;49.082;9.102;2023-07-08T06:45:09;8.07;;;5.60;;
27889;SDS011;15238;49.082;9.102;2023-07-08T06:47:10;9.75;;;5.38;;
27889;SDS011;15238;49.082;9.102;2023-07-08T06:49:11;8.18;;;5.63;;
27889;SDS011;15238;49.082;9.102;2023-07-08T06:51:12;9.38;;;5.35;;
27889;SDS011;15238;49.082;9.102;2023-07-08T06:53:13;9.30;;;5.25;;
27889;SDS011;15238;49.082;9.102;2023-07-08T06:55:14;10.95;;;5.25;;
27889;SDS011;15238;49.082;9.102;2023-07-08T06:57:15;6.85;;;5.28;;
27889;SDS011;15238;49.082;9.102;2023-07-08T06:59:15;9.85;;;5.75;;
27889;SDS011;15238;49.082;9.102;2023-07-08T07:01:16;7.80;;;5.53;;
27889;SDS011;15238;49.082;9.102;2023-07-08T07:03:16;8.02;;;5.45;;
27889;SDS011;15238;49.082;9.102;2023-07-08T07:05:17;7.53;;;5.75;;
27889;SDS011;15238;49.082;9.102;2023-07-08T07:07:17;8.43;;;5.55;;
27889;SDS011;15238;49.082;9.102;2023-07-08T07:09:18;8.82;;;5.30;;
27889;SDS011;15238;49.082;9.102;2023-07-08T07:11:19;10.05;;;5.63;;
27889;SDS011;15238;49.082;9.102;2023-07-08T07:13:19;7.45;;;5.38;;
27889;SDS011;15238;49.082;9.102;2023-07-08T07:15:26;8.23;;;6.05;;
27889;SDS011;15238;49.082;9.102;2023-07-08T07:17:30;9.65;;;6.07;;
27889;SDS011;15238;49.082;9.102;2023-07-08T07:19:35;11.38;;;5.88;;
27889;SDS011;15238;49.082;9.102;2023-07-08T07:21:36;7.70;;;5.50;;
27889;SDS011;15238;49.082;9.102;2023-07-08T07:23:36;8.40;;;5.40;;
27889;SDS011;15238;49.082;9.102;2023-07-08T07:25:37;7.50;;;5.55;;
27889;SDS011;15238;49.082;9.102;2023-07-08T07:27:37;8.93;;;5.68;;
27889;SDS011;15238;49.082;9.102;2023-07-08T07:29:40;7.80;;;5.70;;
27889;SDS011;15238;49.082;9.102;2023-07-08T07:31:46;7.40;;;5.95;;
27889;SDS011;15238;49.082;9.102;2023-07-08T07:33:47;8.98;;;5.57;;
27889;SDS011;15238;49.082;9.102;2023-07-08T07:35:47;7.25;;;5.57;;
27889;SDS011;15238;49.082;9.102;2023-07-08T07:37:48;9.25;;;5.65;;
27889;SDS011;15238;49.082;9.102;2023-07-08T07:39:48;8.80;;;5.60;;
27889;SDS011;15238;49.082;9.102;2023-07-08T07:41:49;9.30;;;5.68;;
27889;SDS011;15238;49.082;9.102;2023-07-08T07:43:50;10.30;;;5.82;;
27889;SDS011;15238;49.082;9.102;2023-07-08T07:45:53;10.35;;;6.00;;
27889;SDS011;15238;49.082;9.102;2023-07-08T07:47:54;10.82;;;6.32;;
27889;SDS011;15238;49.082;9.102;2023-07-08T07:49:54;8.02;;;5.90;;
27889;SDS011;15238;49.082;9.102;2023-07-08T07:51:55;9.13;;;5.88;;
27889;SDS011;15238;49.082;9.102;2023-07-08T07:53:56;11.00;;;6.32;;
27889;SDS011;15238;49.082;9.102;2023-07-08T07:55:57;8.55;;;5.78;;
27889;SDS011;15238;49.082;9.102;2023-07-08T07:57:58;9.73;;;5.72;;
27889;SDS011;15238;49.082;9.102;2023-07-08T07:59:59;8.80;;;6.32;;
27889;SDS011;15238;49.082;9.102;2023-07-08T08:01:59;6.72;;;5.43;;
27889;SDS011;15238;49.082;9.102;2023-07-08T08:04:00;8.18;;;5.65;;
27889;SDS011;15238;49.082;9.102;2023-07-08T08:06:00;12.40;;;6.15;;
27889;SDS011;15238;49.082;9.102;2023-07-08T08:08:01;12.40;;;6.43;;
27889;SDS011;15238;49.082;9.102;2023-07-08T08:10:03;7.30;;;5.10;;
27889;SDS011;15238;49.082;9.102;2023-07-08T08:12:04;7.88;;;5.78;;
27889;SDS011;15238;49.082;9.102;2023-07-08T08:14:07;6.28;;;5.22;;
27889;SDS011;15238;49.082;9.102;2023-07-08T08:16:08;12.00;;;5.70;;
27889;SDS011;15238;49.082;9.102;2023-07-08T08:18:08;9.65;;;6.10;;
27889;SDS011;15238;49.082;9.102;2023-07-08T08:20:09;11.80;;;6.22;;
27889;SDS011;15238;49.082;9.102;2023-07-08T08:22:10;7.03;;;5.13;;
27889;SDS011;15238;49.082;9.102;2023-07-08T08:24:10;9.13;;;5.43;;
27889;SDS011;15238;49.082;9.102;2023-07-08T08:26:11;9.52;;;5.72;;
27889;SDS011;15238;49.082;9.102;2023-07-08T08:28:11;10.65;;;6.30;;
27889;SDS011;15238;49.082;9.102;2023-07-08T08:30:12;13.15;;;5.95;;
27889;SDS011;15238;49.082;9.102;2023-07-08T08:32:13;7.93;;;5.40;;
27889;SDS011;15238;49.082;9.102;2023-07-08T08:34:14;11.65;;;5.57;;
27889;SDS011;15238;49.082;9.102;2023-07-08T08:36:14;6.93;;;5.35;;
27889;SDS011;15238;49.082;9.102;2023-07-08T08:38:15;7.63;;;5.20;;
27889;SDS011;15238;49.082;9.102;2023-07-08T08:40:18;7.28;;;5.75;;
27889;SDS011;15238;49.082;9.102;2023-07-08T08:42:25;10.27;;;5.72;;
27889;SDS011;15238;49.082;9.102;2023-07-08T08:48:55;13.50;;;6.47;;
27889;SDS011;15238;49.082;9.102;2023-07-08T08:51:03;9.43;;;5.88;;
27889;SDS011;15238;49.082;9.102;2023-07-08T08:53:09;9.60;;;5.85;;
27889;SDS011;15238;49.082;9.102;2023-07-08T08:55:13;8.38;;;5.70;;
27889;SDS011;15238;49.082;9.102;2023-07-08T08:59:27;8.63;;;5.43;;
27889;SDS011;15238;49.082;9.102;2023-07-08T09:01:44;13.35;;;6.03;;
27889;SDS011;15238;49.082;9.102;2023-07-08T09:05:59;8.35;;;5.50;;
27889;SDS011;15238;49.082;9.102;2023-07-08T09:08:04;7.72;;;5.57;;
27889;SDS011;15238;49.082;9.102;2023-07-08T09:10:15;14.95;;;6.18;;
27889;SDS011;15238;49.082;9.102;2023-07-08T09:12:25;6.95;;;5.22;;
27889;SDS011;15238;49.082;9.102;2023-07-08T09:14:29;8.10;;;6.05;;
27889;SDS011;15238;49.082;9.102;2023-07-08T09:16:43;7.93;;;5.47;;
27889;SDS011;15238;49.082;9.102;2023-07-08T09:21:34;7.32;;;5.63;;
27889;SDS011;15238;49.082;9.102;2023-07-08T09:23:40;9.30;;;5.80;;
27889;SDS011;15238;49.082;9.102;2023-07-08T09:25:45;6.25;;;5.65;;
27889;SDS011;15238;49.082;9.102;2023-07-08T09:27:59;11.77;;;5.80;;
27889;SDS011;15238;49.082;9.102;2023-07-08T09:29:59;12.73;;;6.43;;
27889;SDS011;15238;49.082;9.102;2023-07-08T09:32:01;10.35;;;5.85;;
27889;SDS011;15238;49.082;9.102;2023-07-08T09:34:20;7.30;;;5.60;;
27889;SDS011;15238;49.082;9.102;2023-07-08T09:36:25;9.60;;;5.55;;
27889;SDS011;15238;49.082;9.102;2023-07-08T09:38:25;11.00;;;5.43;;
27889;SDS011;15238;49.082;9.102;2023-07-08T09:40:30;7.18;;;5.43;;
27889;SDS011;15238;49.082;9.102;2023-07-08T09:42:32;14.05;;;5.95;;
27889;SDS011;15238;49.082;9.102;2023-07-08T09:44:34;6.53;;;5.43;;
27889;SDS011;15238;49.082;9.102;2023-07-08T09:46:38;9.98;;;5.60;;
27889;SDS011;15238;49.082;9.102;2023-07-08T09:48:39;8.63;;;5.45;;
27889;SDS011;15238;49.082;9.102;2023-07-08T09:50:39;11.52;;;5.20;;
27889;SDS011;15238;49.082;9.102;2023-07-08T09:52:43;6.13;;;5.07;;
27889;SDS011;15238;49.082;9.102;2023-07-08T09:54:45;9.60;;;5.45;;
27889;SDS011;15238;49.082;9.102;2023-07-08T09:56:52;7.68;;;5.75;;
27889;SDS011;15238;49.082;9.102;2023-07-08T09:58:57;9.57;;;5.63;;
27889;SDS011;15238;49.082;9.102;2023-07-08T10:00:59;9.63;;;5.80;;
27889;SDS011;15238;49.082;9.102;2023-07-08T10:03:15;8.45;;;5.25;;
27889;SDS011;15238;49.082;9.102;2023-07-08T10:07:21;8.73;;;5.20;;
27889;SDS011;15238;49.082;9.102;2023-07-08T10:09:23;7.32;;;5.03;;
27889;SDS011;15238;49.082;9.102;2023-07-08T10:11:25;7.15;;;4.82;;
27889;SDS011;15238;49.082;9.102;2023-07-08T10:13:34;12.50;;;5.43;;
27889;SDS011;15238;49.082;9.102;2023-07-08T10:15:43;9.60;;;5.65;;
27889;SDS011;15238;49.082;9.102;2023-07-08T10:17:48;8.18;;;5.40;;
27889;SDS011;15238;49.082;9.102;2023-07-08T10:19:48;9.82;;;5.38;;
27889;SDS011;15238;49.082;9.102;2023-07-08T10:22:10;14.35;;;5.60;;
27889;SDS011;15238;49.082;9.102;2023-07-08T10:26:33;8.70;;;4.63;;
27889;SDS011;15238;49.082;9.102;2023-07-08T10:28:39;8.52;;;4.43;;
27889;SDS011;15238;49.082;9.102;2023-07-08T10:33:28;6.07;;;4.55;;
27889;SDS011;15238;49.082;9.102;2023-07-08T10:50:40;8.02;;;4.88;;
27889;SDS011;15238;49.082;9.102;2023-07-08T10:52:52;6.82;;;4.95;;
27889;SDS011;15238;49.082;9.102;2023-07-08T10:57:39;9.70;;;4.93;;
27889;SDS011;15238;49.082;9.102;2023-07-08T11:00:03;7.10;;;4.60;;
27889;SDS011;15238;49.082;9.102;2023-07-08T11:02:26;8.27;;;5.07;;
27889;SDS011;15238;49.082;9.102;2023-07-08T11:06:58;6.90;;;4.57;;
27889;SDS011;15238;49.082;9.102;2023-07-08T11:09:05;8.27;;;4.65;;
27889;SDS011;15238;49.082;9.102;2023-07-08T11:11:25;11.40;;;4.63;;
27889;SDS011;15238;49.082;9.102;2023-07-08T11:13:39;8.77;;;4.82;;
27889;SDS011;15238;49.082;9.102;2023-07-08T11:20:44;7.57;;;4.45;;
27889;SDS011;15238;49.082;9.102;2023-07-08T11:22:58;6.38;;;4.53;;
27889;SDS011;15238;49.082;9.102;2023-07-08T11:25:23;7.85;;;5.03;;
27889;SDS011;15238;49.082;9.102;2023-07-08T11:27:29;7.25;;;4.60;;
27889;SDS011;15238;49.082;9.102;2023-07-08T11:29:39;8.05;;;5.05;;
27889;SDS011;15238;49.082;9.102;2023-07-08T11:31:45;7.00;;;4.30;;
27889;SDS011;15238;49.082;9.102;2023-07-08T11:33:47;9.40;;;4.38;;
27889;SDS011;15238;49.082;9.102;2023-07-08T11:35:49;9.55;;;4.32;;
27889;SDS011;15238;49.082;9.102;2023-07-08T11:37:52;6.65;;;4.30;;
27889;SDS011;15238;49.082;9.102;2023-07-08T11:44:56;7.07;;;3.97;;
27889;SDS011;15238;49.082;9.102;2023-07-08T11:46:57;4.60;;;3.63;;
27889;SDS011;15238;49.082;9.102;2023-07-08T11:49:05;9.55;;;4.20;;
27889;SDS011;15238;49.082;9.102;2023-07-08T11:51:29;7.57;;;4.28;;
27889;SDS011;15238;49.082;9.102;2023-07-08T11:53:36;7.53;;;4.43;;
27889;SDS011;15238;49.082;9.102;2023-07-08T11:55:55;7.00;;;4.20;;
27889;SDS011;15238;49.082;9.102;2023-07-08T11:57:59;6.00;;;4.07;;
27889;SDS011;15238;49.082;9.102;2023-07-08T12:00:33;8.95;;;4.18;;
27889;SDS011;15238;49.082;9.102;2023-07-08T12:02:43;7.07;;;3.72;;
27889;SDS011;15238;49.082;9.102;2023-07-08T12:07:06;6.78;;;3.53;;
27889;SDS011;15238;49.082;9.102;2023-07-08T12:09:14;10.20;;;3.80;;
27889;SDS011;15238;49.082;9.102;2023-07-08T12:11:32;10.52;;;3.85;;
27889;SDS011;15238;49.082;9.102;2023-07-08T12:13:34;5.95;;;3.72;;
27889;SDS011;15238;49.082;9.102;2023-07-08T12:15:36;5.05;;;3.58;;
27889;SDS011;15238;49.082;9.102;2023-07-08T12:17:39;8.60;;;3.83;;
27889;SDS011;15238;49.082;9.102;2023-07-08T12:19:41;6.22;;;3.65;;
27889;SDS011;15238;49.082;9.102;2023-07-08T12:21:44;4.53;;;3.63;;
27889;SDS011;15238;49.082;9.102;2023-07-08T12:23:46;5.95;;;3.60;;
27889;SDS011;15238;49.082;9.102;2023-07-08T12:25:47;6.72;;;3.97;;
27889;SDS011;15238;49.082;9.102;2023-07-08T12:27:48;6.28;;;4.75;;
27889;SDS011;15238;49.082;9.102;2023-07-08T12:29:48;8.75;;;3.80;;
27889;SDS011;15238;49.082;9.102;2023-07-08T12:31:50;6.25;;;3.63;;
27889;SDS011;15238;49.082;9.102;2023-07-08T12:33:51;6.78;;;3.58;;
27889;SDS011;15238;49.082;9.102;2023-07-08T12:35:51;6.10;;;3.70;;
27889;SDS011;15238;49.082;9.102;2023-07-08T12:37:52;8.85;;;3.95;;
27889;SDS011;15238;49.082;9.102;2023-07-08T12:39:56;6.97;;;3.65;;
27889;SDS011;15238;49.082;9.102;2023-07-08T12:42:08;7.20;;;3.83;;
27889;SDS011;15238;49.082;9.102;2023-07-08T12:44:17;6.32;;;3.22;;
27889;SDS011;15238;49.082;9.102;2023-07-08T12:46:20;5.03;;;3.63;;
27889;SDS011;15238;49.082;9.102;2023-07-08T12:48:22;4.32;;;3.67;;
27889;SDS011;15238;49.082;9.102;2023-07-08T12:50:23;4.72;;;3.75;;
27889;SDS011;15238;49.082;9.102;2023-07-08T12:52:24;4.97;;;3.53;;
27889;SDS011;15238;49.082;9.102;2023-07-08T12:54:24;12.82;;;3.35;;
27889;SDS011;15238;49.082;9.102;2023-07-08T12:56:28;8.20;;;3.90;;
27889;SDS011;15238;49.082;9.102;2023-07-08T12:58:34;4.30;;;3.40;;
27889;SDS011;15238;49.082;9.102;2023-07-08T13:00:39;6.63;;;3.92;;
27889;SDS011;15238;49.082;9.102;2023-07-08T13:02:43;5.20;;;3.78;;
27889;SDS011;15238;49.082;9.102;2023-07-08T13:04:47;6.47;;;3.20;;
27889;SDS011;15238;49.082;9.102;2023-07-08T13:06:50;8.88;;;3.75;;